createdAt,value
2023-10-26T00:01:20.644Z,11.48
2023-10-26T00:04:23.162Z,11.48
2023-10-26T00:07:26.809Z,11.60
2023-10-26T00:10:28.669Z,11.50
2023-10-26T00:13:30.557Z,11.52
2023-10-26T00:16:33.211Z,11.51
2023-10-26T00:19:35.712Z,11.58
2023-10-26T00:22:38.994Z,11.59
2023-10-26T00:25:40.905Z,11.57
2023-10-26T00:28:42.851Z,11.63
2023-10-26T00:31:44.563Z,11.55
2023-10-26T00:34:46.881Z,11.44
2023-10-26T00:37:50.246Z,11.47
2023-10-26T00:40:52.772Z,11.52
2023-10-26T00:43:54.833Z,11.50
2023-10-26T00:46:56.926Z,11.51
2023-10-26T00:50:00.670Z,11.41
2023-10-26T00:53:04.144Z,11.35
2023-10-26T00:56:06.948Z,11.38
2023-10-26T00:59:10.682Z,11.39
2023-10-26T01:02:13.800Z,11.44
2023-10-26T01:05:15.966Z,11.48
2023-10-26T01:08:20.052Z,11.50
2023-10-26T01:11:22.661Z,11.50
2023-10-26T01:14:24.853Z,11.55
2023-10-26T01:17:26.751Z,11.54
2023-10-26T01:20:28.726Z,11.56
2023-10-26T01:23:32.282Z,11.58
2023-10-26T01:26:34.484Z,11.60
2023-10-26T01:29:36.728Z,11.58
2023-10-26T01:32:38.985Z,11.60
2023-10-26T01:35:41.244Z,11.60
2023-10-26T01:38:44.432Z,11.60
2023-10-26T01:41:47.009Z,11.52
2023-10-26T01:44:49.603Z,11.47
2023-10-26T01:47:51.840Z,11.46
2023-10-26T01:50:54.026Z,11.43
2023-10-26T01:53:57.443Z,11.43
2023-10-26T01:56:59.317Z,11.32
2023-10-26T02:00:01.153Z,11.35
2023-10-26T02:03:03.174Z,11.41
2023-10-26T08:45:24.339Z,10.82
2023-10-26T08:48:29.647Z,10.83
2023-10-26T08:51:31.463Z,10.85
2023-10-26T08:54:33.184Z,10.75
2023-10-26T08:57:34.951Z,10.73
2023-10-26T09:00:38.447Z,10.78
2023-10-26T09:03:40.222Z,10.79
2023-10-26T09:06:45.787Z,10.66
2023-10-26T09:09:47.677Z,10.65
2023-10-26T09:12:59.141Z,10.64
2023-10-26T09:16:03.104Z,10.63
2023-10-26T09:19:05.114Z,10.62
2023-10-26T09:22:07.033Z,10.54
2023-10-26T09:25:10.859Z,10.52
2023-10-26T09:28:12.881Z,10.55
2023-10-26T09:31:16.047Z,10.46
2023-10-26T09:34:17.872Z,10.49
2023-10-26T09:37:19.680Z,10.55
2023-10-26T09:40:22.363Z,10.56
2023-10-26T09:43:24.393Z,10.64
2023-10-26T09:46:27.868Z,10.59
2023-10-26T09:49:29.711Z,10.69
2023-10-26T09:52:31.889Z,10.67
2023-10-26T09:55:34.142Z,10.71
2023-10-26T09:58:39.899Z,10.77
2023-10-26T10:01:43.223Z,10.79
2023-10-26T10:04:45.957Z,10.79
2023-10-26T10:07:48.061Z,10.85
2023-10-26T10:11:15.099Z,10.91
2023-10-26T10:14:54.564Z,10.86
2023-10-26T10:18:06.436Z,10.84
2023-10-26T10:21:36.728Z,10.85
2023-10-26T10:24:50.597Z,10.71
2023-10-26T10:28:11.094Z,10.75
2023-10-26T10:31:22.436Z,10.77
2023-10-26T10:34:29.521Z,10.69
2023-10-26T10:37:33.098Z,10.69
2023-10-26T10:40:35.041Z,10.66
2023-10-26T10:43:37.637Z,10.58
2023-10-26T10:46:39.458Z,10.48
2023-10-26T10:49:41.468Z,10.42
2023-10-26T10:52:44.691Z,10.48
2023-10-26T10:55:46.522Z,10.56
2023-10-26T10:58:48.317Z,10.50
2023-10-26T11:01:51.345Z,10.46
2023-10-26T11:05:02.297Z,10.49
2023-10-26T11:08:09.682Z,10.55
2023-10-26T11:11:24.646Z,10.68
2023-10-26T11:14:26.344Z,10.66
2023-10-26T11:17:30.162Z,10.76
2023-10-26T11:20:36.985Z,10.79
2023-10-26T11:23:40.134Z,10.82
2023-10-26T11:26:41.875Z,10.98
2023-10-26T11:29:45.436Z,11.02
2023-10-26T11:32:47.277Z,11.07
2023-10-26T11:35:49.025Z,11.12
2023-10-26T11:38:52.245Z,11.13
2023-10-26T11:41:55.114Z,11.15
2023-10-26T11:44:59.912Z,11.07
2023-10-26T11:48:02.169Z,11.09
2023-10-26T11:51:04.193Z,11.04
2023-10-26T11:54:13.886Z,11.05
2023-10-26T11:57:15.697Z,11.09
2023-10-26T12:00:18.143Z,11.17
2023-10-26T12:03:20.410Z,11.17
2023-10-26T12:06:22.207Z,11.20
2023-10-26T12:09:25.328Z,11.24
2023-10-26T12:12:27.124Z,11.33
2023-10-26T12:15:29.268Z,11.42
2023-10-26T12:18:31.156Z,11.48
2023-10-26T12:21:32.936Z,11.48
2023-10-26T12:24:36.162Z,11.54
2023-10-26T12:28:19.655Z,11.60
2023-10-26T12:31:00.382Z,11.54
2023-10-26T12:34:02.205Z,11.60
2023-10-26T12:37:04.681Z,11.63
2023-10-26T12:40:09.140Z,11.55
2023-10-26T12:43:10.932Z,11.54
2023-10-26T12:46:13.669Z,11.50
2023-10-26T12:49:15.504Z,11.55
2023-10-26T12:52:17.381Z,11.50
2023-10-26T12:55:20.569Z,11.51
2023-10-26T12:58:22.298Z,11.54
2023-10-26T13:01:24.160Z,11.60
2023-10-26T13:04:26.107Z,11.52
2023-10-26T13:07:28.025Z,11.57
2023-10-26T13:10:31.256Z,11.63
2023-10-26T13:13:33.082Z,11.71
2023-10-26T13:16:50.411Z,11.76
2023-10-26T13:19:56.606Z,11.81
2023-10-26T13:22:58.559Z,11.86
2023-10-26T13:26:01.927Z,11.98
2023-10-26T13:29:03.779Z,11.93
2023-10-26T13:32:05.886Z,12.03
2023-10-26T13:35:08.377Z,12.06
2023-10-26T13:38:10.299Z,12.12
2023-10-26T13:41:13.441Z,12.14
2023-10-26T13:44:15.274Z,12.21
2023-10-26T13:47:17.094Z,12.41
2023-10-26T13:50:18.903Z,12.42
2023-10-26T13:53:20.736Z,12.46
2023-10-26T13:56:23.963Z,12.54
2023-10-26T13:59:25.903Z,12.52
2023-10-26T14:02:27.828Z,12.60
2023-10-26T14:05:30.887Z,12.63
2023-10-26T14:08:33.400Z,12.63
2023-10-26T14:11:36.532Z,12.73
2023-10-26T14:14:38.380Z,12.85
2023-10-26T14:17:40.179Z,12.88
2023-10-26T14:20:41.953Z,12.92
2023-10-26T14:23:43.685Z,12.88
2023-10-26T14:26:46.831Z,12.88
2023-10-26T14:29:48.647Z,13.03
2023-10-26T14:32:50.509Z,12.97
2023-10-26T14:35:52.607Z,12.82
2023-10-26T14:38:54.586Z,12.77
2023-10-26T14:41:57.886Z,12.77
2023-10-26T14:44:59.622Z,12.69
2023-10-26T14:48:01.447Z,12.68
2023-10-26T14:51:03.618Z,12.71
2023-10-26T14:54:05.484Z,12.75
2023-10-26T14:57:08.570Z,12.74
2023-10-26T15:00:11.052Z,12.75
2023-10-26T15:03:12.878Z,12.76
2023-10-26T15:06:14.667Z,12.80
2023-10-26T15:10:20.002Z,12.69
2023-10-26T15:12:39.717Z,12.73
2023-10-26T15:15:42.095Z,12.79
2023-10-26T15:18:43.929Z,12.83
2023-10-26T15:21:45.864Z,12.80
2023-10-26T15:24:47.672Z,12.75
2023-10-26T15:27:50.900Z,12.74
2023-10-26T15:30:52.779Z,12.79
2023-10-26T15:33:55.518Z,12.96
2023-10-26T15:36:59.703Z,12.87
2023-10-26T15:40:01.842Z,12.80
2023-10-26T15:43:05.165Z,12.74
2023-10-26T15:46:07.477Z,12.66
2023-10-26T15:49:31.317Z,12.61
2023-10-26T15:52:32.241Z,12.49
2023-10-26T15:55:34.046Z,12.36
2023-10-26T15:58:37.815Z,12.40
2023-10-26T16:01:40.090Z,12.45
2023-10-26T16:04:42.332Z,12.40
2023-10-26T16:07:44.264Z,12.42
2023-10-26T16:10:46.210Z,12.43
2023-10-26T16:13:49.537Z,12.39
2023-10-26T16:16:51.591Z,12.42
2023-10-26T16:19:53.815Z,12.44
2023-10-26T16:22:56.459Z,12.40
2023-10-26T16:25:59.110Z,12.40
2023-10-26T16:29:03.146Z,12.40
2023-10-26T16:32:06.742Z,12.42
2023-10-26T16:35:10.227Z,12.38
2023-10-26T16:38:13.606Z,12.37
2023-10-26T16:41:17.011Z,12.36
2023-10-26T16:44:23.224Z,12.32
2023-10-26T16:47:27.564Z,12.33
2023-10-26T16:50:32.302Z,12.31
2023-10-26T16:53:36.017Z,12.29
2023-10-26T16:56:40.832Z,12.21
2023-10-26T16:59:48.908Z,12.24
2023-10-26T17:02:53.955Z,12.18
2023-10-26T17:06:00.548Z,12.15
2023-10-26T17:09:04.132Z,12.20
2023-10-26T17:12:08.656Z,12.18
2023-10-26T17:15:14.548Z,12.17
2023-10-26T17:18:18.494Z,12.14
2023-10-26T17:21:22.386Z,12.14
2023-10-26T17:24:26.309Z,12.09
2023-10-26T17:27:31.748Z,12.25
2023-10-26T17:30:37.349Z,12.14
2023-10-26T17:33:41.237Z,12.12
2023-10-26T17:36:45.235Z,12.11
2023-10-26T17:39:49.794Z,12.15
2023-10-26T17:42:55.011Z,12.07
2023-10-26T17:46:02.507Z,12.04
2023-10-26T17:49:06.537Z,12.02
2023-10-26T17:52:10.635Z,12.00
2023-10-26T17:55:15.828Z,12.00
2023-10-26T17:58:19.802Z,11.98
2023-10-26T18:01:25.636Z,11.88
2023-10-26T18:04:31.140Z,11.76
2023-10-26T18:07:36.543Z,11.65
2023-10-26T18:10:42.837Z,11.64
2023-10-26T18:13:48.487Z,11.52
2023-10-26T18:16:55.990Z,11.55
2023-10-26T18:20:00.377Z,11.47
2023-10-26T18:23:04.279Z,11.48
2023-10-26T18:26:10.548Z,11.49
2023-10-26T18:29:14.321Z,11.50
2023-10-26T18:32:21.562Z,11.47
2023-10-26T18:35:27.815Z,11.43
2023-10-26T18:38:32.302Z,11.43
2023-10-26T18:41:36.213Z,11.41
2023-10-26T18:44:40.125Z,11.44
2023-10-26T18:47:46.852Z,11.41
2023-10-26T18:50:52.521Z,11.36
2023-10-26T18:53:58.016Z,11.27
2023-10-26T18:57:03.170Z,11.18
2023-10-26T19:00:08.546Z,11.01
2023-10-26T19:03:19.390Z,10.94
2023-10-26T19:06:23.137Z,10.88
2023-10-26T19:09:28.253Z,10.53
2023-10-26T19:12:33.039Z,10.04
2023-10-26T19:15:37.325Z,9.89
2023-10-26T19:18:51.516Z,10.05
2023-10-26T19:21:55.622Z,10.30
2023-10-26T19:25:01.874Z,10.41
2023-10-26T19:28:06.118Z,10.52
2023-10-26T19:31:11.391Z,10.56
2023-10-26T19:34:17.302Z,10.60
2023-10-26T19:37:23.032Z,10.68
2023-10-26T19:40:27.974Z,10.60
2023-10-26T19:43:35.374Z,10.60
2023-10-26T19:46:40.620Z,10.33
2023-10-26T19:49:47.914Z,9.98
2023-10-26T19:52:51.929Z,9.75
2023-10-26T19:55:55.906Z,9.56
2023-10-26T19:59:01.363Z,9.80
2023-10-26T20:02:05.903Z,9.69
2023-10-26T20:05:15.116Z,9.60
2023-10-26T20:08:18.844Z,9.55
2023-10-26T20:11:22.238Z,9.61
2023-10-26T20:14:26.189Z,9.70
2023-10-26T20:17:29.743Z,9.88
2023-10-26T20:20:35.003Z,9.63
2023-10-26T20:23:38.513Z,9.54
2023-10-26T20:26:42.546Z,9.58
2023-10-26T20:29:46.119Z,9.50
2023-10-26T20:32:49.758Z,9.53
2023-10-26T20:35:55.378Z,9.57
2023-10-26T20:38:58.469Z,9.52
2023-10-26T20:42:00.865Z,9.52
2023-10-26T20:45:03.036Z,9.57
2023-10-26T20:48:05.929Z,9.65
2023-10-26T20:51:11.302Z,9.78
2023-10-26T20:54:21.490Z,9.87
2023-10-26T20:57:23.373Z,10.02
2023-10-26T21:00:25.270Z,10.13
2023-10-26T21:03:27.061Z,10.25
2023-10-26T21:06:30.217Z,10.36
2023-10-26T21:09:33.210Z,10.42
2023-10-26T21:12:35.106Z,10.51
2023-10-26T21:15:37.115Z,10.54
2023-10-26T21:18:38.976Z,10.59
2023-10-26T21:21:42.126Z,10.60
2023-10-26T21:24:46.602Z,10.57
2023-10-26T21:27:48.405Z,10.58
2023-10-26T21:30:50.302Z,10.42
2023-10-26T21:33:52.105Z,10.45
2023-10-26T21:36:55.323Z,10.48
2023-10-26T21:39:57.413Z,10.37
2023-10-26T21:42:59.324Z,10.40
2023-10-26T21:46:05.255Z,10.45
2023-10-26T21:49:07.205Z,10.41
2023-10-26T21:52:10.371Z,10.27
2023-10-26T21:55:12.204Z,10.37
2023-10-26T21:58:13.996Z,10.43
2023-10-26T22:01:15.904Z,10.52
2023-10-26T22:04:22.486Z,10.57
2023-10-26T22:07:25.875Z,10.64
2023-10-26T22:10:27.725Z,10.64
2023-10-26T22:13:29.634Z,10.68
2023-10-26T22:16:31.501Z,10.68
2023-10-26T22:19:33.642Z,10.69
2023-10-26T22:22:37.194Z,10.69
2023-10-26T22:25:39.020Z,10.66
2023-10-26T22:28:40.765Z,10.65
2023-10-26T22:31:42.608Z,10.50
2023-10-26T22:34:44.389Z,10.46
2023-10-26T22:37:47.671Z,10.40
2023-10-26T22:40:49.423Z,10.47
2023-10-26T22:43:51.192Z,10.47
2023-10-26T22:46:52.928Z,10.53
2023-10-26T22:49:55.576Z,10.56
2023-10-26T22:52:58.796Z,10.49
2023-10-26T22:56:01.174Z,10.31
2023-10-26T22:59:02.975Z,10.12
2023-10-26T23:02:04.712Z,10.24
2023-10-26T23:05:06.798Z,10.31
2023-10-26T23:08:12.954Z,10.29
2023-10-26T23:11:14.918Z,10.34
2023-10-26T23:14:16.759Z,10.40
2023-10-26T23:17:18.485Z,10.49
2023-10-26T23:20:20.216Z,10.56
2023-10-26T23:23:23.428Z,10.60
2023-10-26T23:26:25.209Z,10.58
2023-10-26T23:29:26.988Z,10.62
2023-10-26T23:32:28.786Z,10.61
2023-10-26T23:35:30.563Z,10.58
2023-10-26T23:38:33.988Z,10.56
2023-10-26T23:41:35.737Z,10.54
2023-10-26T23:44:37.463Z,10.56
2023-10-26T23:47:39.291Z,10.56
2023-10-26T23:50:41.119Z,10.61
2023-10-26T23:53:44.220Z,10.51
2023-10-26T23:56:45.952Z,10.48
2023-10-26T23:59:47.710Z,10.46
